CYZT

Port Hardy Airport

Port Hardy, , Canada
METAR CYZT 200100Z 36003KT 20SM SCT028 BKN052 BKN100 13/10 A3007 RMK CU4SC1AC2 OCNL -SHRA SLP185
Observed Flight Rules
Sep-20 @ 01:00 UTC (12 minutes ago) Visual Flight Rules
Wind Visibility Clouds
360° at 3 knots 20 miles
  • Scattered at 2,800' AGL
  • Broken at 5,200' AGL
  • Broken at 10,000' AGL
Temperatures Readings
Current 13°C / 55°F
Dewpoint 10°C / 50°F
Humidity 82%
Altimeter 30.07" Hg
Pressure 1018.5 hPa
Elevation 22
METAR CYZT 200100Z 36003KT 20SM SCT028 BKN052 BKN100 13/10 A3007 RMK CU4SC1AC2 OCNL -SHRA SLP185
Observed Flight Rules
Sep-20 @ 01:00 UTC
(12 minutes ago)
VFR
Wind Visibility
360° at 3 knots 20 miles
Clouds
  • Scattered at 2,800' AGL
  • Broken at 5,200' AGL
  • Broken at 10,000' AGL
Temperature Dewpoint
13°C / 55°F 10°C / 50°F
Humidity Altimeter Pressure
82% 30.07" Hg 1018.5 hPa